Time;durP1;ratioP1;P1;durP2;ratioP2;P2;SDS_P1;SDS_P2;PMS_P1;PMS_P2;Temp;Humidity;BMP_temperature;BMP_pressure;BME280_temperature;BME280_humidity;BME280_pressure;Samples;Min_cycle;Max_cycle;Signal;HPM_P1;HPM_P2
2023/03/20 00:01:11;;;;;;;2.53;2.33;;;18.00;56.90;;;;;;5036193;28;20458;-44
2023/03/20 00:03:37;;;;;;;4.33;3.23;;;18.00;56.90;;;;;;5034626;28;20488;-45
2023/03/20 00:06:02;;;;;;;2.93;2.63;;;18.00;56.80;;;;;;5039098;28;20496;-45
2023/03/20 00:08:28;;;;;;;4.60;4.13;;;18.00;56.90;;;;;;5038763;28;20727;-46
2023/03/20 00:10:53;;;;;;;2.87;2.57;;;18.10;56.60;;;;;;5039518;28;20223;-44
2023/03/20 00:13:25;;;;;;;2.10;2.00;;;18.20;56.30;;;;;;5045990;28;20196;-44
2023/03/20 00:15:50;;;;;;;2.77;2.57;;;18.30;56.00;;;;;;5045647;28;20192;-44
2023/03/20 00:18:19;;;;;;;1.90;1.80;;;18.30;55.80;;;;;;5034158;28;20740;-46
2023/03/20 00:20:49;;;;;;;2.63;2.43;;;18.40;55.70;;;;;;5037059;28;20197;-45
2023/03/20 00:23:15;;;;;;;2.10;2.00;;;18.30;55.50;;;;;;5040503;28;20490;-45
2023/03/20 00:25:44;;;;;;;2.27;1.93;;;18.30;55.50;;;;;;5037010;28;20463;-45
2023/03/20 00:28:31;;;;;;;2.47;2.07;;;18.30;55.60;;;;;;5036790;28;20447;-46
2023/03/20 00:30:57;;;;;;;1.90;1.80;;;18.30;55.70;;;;;;5041800;28;20454;-45
2023/03/20 00:33:22;;;;;;;3.10;2.23;;;18.30;55.80;;;;;;5040391;28;20486;-44
2023/03/20 00:35:48;;;;;;;1.90;1.80;;;18.30;55.70;;;;;;5038632;28;20193;-44
2023/03/20 00:38:14;;;;;;;2.00;1.90;;;18.40;55.60;;;;;;5038128;28;20531;-44
2023/03/20 00:40:40;;;;;;;2.07;1.97;;;18.40;55.20;;;;;;5040643;28;20563;-45
2023/03/20 00:43:06;;;;;;;2.17;2.07;;;18.50;55.20;;;;;;5038133;28;20225;-46
2023/03/20 00:45:34;;;;;;;2.07;1.93;;;18.50;55.20;;;;;;5041788;28;20554;-44
2023/03/20 00:48:00;;;;;;;1.80;1.70;;;18.60;55.00;;;;;;5039121;28;20500;-45
2023/03/20 00:50:29;;;;;;;1.70;1.60;;;18.60;54.90;;;;;;5037901;28;20479;-44
2023/03/20 00:52:56;;;;;;;2.20;2.00;;;18.70;55.00;;;;;;5039367;28;20439;-43
2023/03/20 00:55:24;;;;;;;2.27;2.07;;;18.70;54.80;;;;;;5039791;28;20528;-45
2023/03/20 00:57:54;;;;;;;2.30;2.10;;;18.70;54.40;;;;;;5040593;28;20443;-44
2023/03/20 01:00:23;;;;;;;1.83;1.63;;;18.70;54.40;;;;;;5039346;28;20434;-44
2023/03/20 01:02:50;;;;;;;4.00;1.83;;;18.70;54.50;;;;;;5039007;28;20487;-47
2023/03/20 01:05:16;;;;;;;1.67;1.57;;;18.80;54.60;;;;;;5043714;28;20501;-44
2023/03/20 01:07:43;;;;;;;3.50;1.90;;;18.80;54.50;;;;;;5035593;28;20942;-44
2023/03/20 01:10:10;;;;;;;2.07;1.97;;;18.80;54.30;;;;;;5038936;28;20204;-46
2023/03/20 01:12:40;;;;;;;3.10;2.43;;;18.90;54.10;;;;;;5038262;28;20988;-44
2023/03/20 01:15:29;;;;;;;2.70;2.50;;;18.80;54.10;;;;;;5050394;28;21001;-44
2023/03/20 01:17:55;;;;;;;2.70;2.50;;;18.80;54.40;;;;;;5040346;28;20933;-44
2023/03/20 01:20:27;;;;;;;3.10;2.80;;;18.80;54.50;;;;;;5040496;28;20451;-44
2023/03/20 01:22:53;;;;;;;4.07;3.77;;;18.70;54.90;;;;;;5042846;28;20229;-44
2023/03/20 01:25:20;;;;;;;4.07;3.67;;;18.60;54.90;;;;;;5038218;28;21254;-44
2023/03/20 01:27:53;;;;;;;4.03;3.60;;;18.60;54.70;;;;;;5041056;28;20197;-44
2023/03/20 01:30:25;;;;;;;4.30;3.20;;;18.50;54.90;;;;;;5042836;28;20858;-46
2023/03/20 01:32:51;;;;;;;3.97;3.60;;;18.30;55.30;;;;;;5044322;28;20558;-44
2023/03/20 01:35:22;;;;;;;4.07;3.70;;;18.20;55.50;;;;;;5036602;28;20530;-44
2023/03/20 01:37:49;;;;;;;3.63;3.17;;;18.10;56.20;;;;;;5039067;28;20439;-44
2023/03/20 01:40:36;;;;;;;3.83;3.53;;;18.10;56.20;;;;;;5039094;28;20453;-44
2023/03/20 01:43:02;;;;;;;4.00;3.70;;;18.00;56.70;;;;;;5038769;28;20475;-44
2023/03/20 01:45:35;;;;;;;3.53;3.23;;;17.90;57.20;;;;;;5046061;28;20446;-44
2023/03/20 01:48:22;;;;;;;3.50;3.17;;;17.90;57.10;;;;;;5038800;28;20197;-44
2023/03/20 01:50:48;;;;;;;3.20;2.97;;;17.80;57.40;;;;;;5039556;28;20708;-44
2023/03/20 01:53:15;;;;;;;3.07;2.87;;;17.80;57.70;;;;;;5045664;28;20447;-44
2023/03/20 01:55:44;;;;;;;3.23;2.93;;;17.90;57.70;;;;;;5039654;28;20232;-44
2023/03/20 01:58:18;;;;;;;4.63;3.07;;;18.00;56.90;;;;;;5038725;28;20435;-44
2023/03/20 02:00:44;;;;;;;2.97;2.70;;;18.10;56.70;;;;;;5032960;28;20437;-43
2023/03/20 02:03:11;;;;;;;3.47;2.43;;;18.10;56.00;;;;;;5041828;28;20583;-44
2023/03/20 02:05:38;;;;;;;2.70;2.50;;;18.00;56.10;;;;;;5040936;28;20443;-44
2023/03/20 02:08:28;;;;;;;6.33;2.40;;;18.00;56.10;;;;;;5043128;28;20486;-45
2023/03/20 02:10:54;;;;;;;2.80;2.60;;;18.00;56.70;;;;;;5034809;28;20443;-44
2023/03/20 02:13:21;;;;;;;2.73;2.47;;;18.00;56.60;;;;;;5043064;28;20472;-43
2023/03/20 02:16:02;;;;;;;2.50;2.30;;;18.10;56.20;;;;;;5037249;28;20446;-44
2023/03/20 02:18:28;;;;;;;2.47;2.27;;;18.10;56.40;;;;;;5052603;28;20435;-45
2023/03/20 02:21:23;;;;;;;2.30;2.10;;;18.20;56.40;;;;;;5045722;28;20454;-46
2023/03/20 02:23:56;;;;;;;2.23;2.03;;;18.20;55.80;;;;;;5033260;28;20494;-43
2023/03/20 02:26:45;;;;;;;2.90;2.37;;;18.20;55.20;;;;;;5038608;28;20515;-43
2023/03/20 02:29:44;;;;;;;1.97;1.87;;;18.10;55.40;;;;;;5036441;28;20531;-46
2023/03/20 02:32:45;;;;;;;2.33;2.13;;;18.10;56.00;;;;;;5047653;28;20893;-44
2023/03/20 02:35:30;;;;;;;3.27;2.47;;;18.20;55.80;;;;;;5037420;28;20442;-44
2023/03/20 02:38:17;;;;;;;3.37;2.60;;;18.20;55.70;;;;;;5038727;28;20438;-45
2023/03/20 02:41:06;;;;;;;2.73;2.50;;;18.30;55.70;;;;;;5048347;28;20443;-44
2023/03/20 02:43:46;;;;;;;3.87;2.27;;;18.40;55.70;;;;;;5049086;28;20482;-45
2023/03/20 02:46:35;;;;;;;2.60;2.40;;;18.50;55.50;;;;;;5038876;28;20450;-43
2023/03/20 02:49:16;;;;;;;2.43;2.33;;;18.50;55.50;;;;;;5032345;28;20498;-44
2023/03/20 02:52:06;;;;;;;2.33;2.23;;;18.50;55.30;;;;;;5038297;28;20434;-44
2023/03/20 02:54:53;;;;;;;2.73;2.53;;;18.40;54.80;;;;;;5036977;28;20492;-44
2023/03/20 02:57:57;;;;;;;2.57;2.37;;;18.30;54.40;;;;;;5047755;28;20474;-46
2023/03/20 03:00:47;;;;;;;2.30;2.10;;;18.30;54.40;;;;;;5044646;28;20461;-45
2023/03/20 03:03:29;;;;;;;2.20;2.10;;;18.20;54.40;;;;;;5036976;28;20491;-44
2023/03/20 03:05:59;;;;;;;2.13;2.00;;;18.30;54.30;;;;;;5032652;28;20452;-45
2023/03/20 03:08:30;;;;;;;2.40;2.20;;;18.20;54.00;;;;;;5035743;28;20443;-46
2023/03/20 03:11:06;;;;;;;2.43;2.23;;;18.20;54.10;;;;;;5034531;28;20451;-45
2023/03/20 03:13:36;;;;;;;2.37;2.17;;;18.40;54.30;;;;;;5040243;28;21008;-45
2023/03/20 03:16:20;;;;;;;2.70;2.50;;;18.40;54.20;;;;;;5039855;28;20452;-44
2023/03/20 03:18:48;;;;;;;2.00;1.90;;;18.50;54.10;;;;;;5042186;28;20453;-44
2023/03/20 03:21:17;;;;;;;3.00;2.20;;;18.50;54.10;;;;;;5040525;28;20542;-44
2023/03/20 03:23:47;;;;;;;2.70;2.50;;;18.50;54.20;;;;;;5043294;28;20621;-44
2023/03/20 03:26:21;;;;;;;2.50;2.30;;;18.50;54.10;;;;;;5045961;28;20435;-44
2023/03/20 03:28:51;;;;;;;4.90;2.13;;;18.60;54.20;;;;;;5040648;28;20453;-44
2023/03/20 03:31:18;;;;;;;2.40;2.10;;;18.70;54.00;;;;;;5038842;28;20906;-46
2023/03/20 03:33:48;;;;;;;1.90;1.80;;;18.70;53.70;;;;;;5050426;28;20439;-45
2023/03/20 03:36:35;;;;;;;2.47;2.27;;;18.70;53.50;;;;;;5046246;28;20447;-44
2023/03/20 03:39:26;;;;;;;2.87;2.30;;;18.70;53.20;;;;;;5037732;28;20550;-44
2023/03/20 03:42:01;;;;;;;2.13;1.87;;;18.60;53.00;;;;;;5047074;28;20432;-45
2023/03/20 03:44:29;;;;;;;2.20;2.10;;;18.50;52.90;;;;;;5037113;28;20952;-46
2023/03/20 03:47:14;;;;;;;2.80;1.80;;;18.50;53.10;;;;;;5046657;28;20447;-45
2023/03/20 03:49:46;;;;;;;2.50;2.30;;;18.50;53.20;;;;;;5051317;28;20518;-44
2023/03/20 03:52:16;;;;;;;3.13;2.00;;;18.50;53.30;;;;;;5037435;28;20435;-44
2023/03/20 03:54:52;;;;;;;2.13;1.93;;;18.50;53.40;;;;;;5031953;28;20478;-45
2023/03/20 03:57:23;;;;;;;2.10;2.00;;;18.50;53.40;;;;;;5036864;28;20855;-45
2023/03/20 03:59:50;;;;;;;2.10;1.70;;;18.60;54.10;;;;;;5035586;28;21022;-44
2023/03/20 04:02:18;;;;;;;3.40;2.00;;;18.60;53.50;;;;;;5028027;28;21271;-44
2023/03/20 04:04:49;;;;;;;2.27;2.17;;;18.60;53.30;;;;;;5056129;28;20568;-45
2023/03/20 04:07:15;;;;;;;1.70;1.60;;;18.60;53.90;;;;;;5030690;28;21206;-44
2023/03/20 04:09:41;;;;;;;2.43;2.23;;;18.60;53.40;;;;;;5041056;28;20447;-44
2023/03/20 04:12:31;;;;;;;2.40;1.90;;;18.60;53.40;;;;;;5039837;28;20210;-44
2023/03/20 04:14:57;;;;;;;2.27;1.80;;;18.70;53.60;;;;;;5031316;28;20239;-45
2023/03/20 04:17:22;;;;;;;1.80;1.70;;;18.60;53.50;;;;;;5039110;28;20857;-44
2023/03/20 04:19:48;;;;;;;2.23;2.00;;;18.60;53.50;;;;;;5047522;28;20270;-44
2023/03/20 04:22:14;;;;;;;1.60;1.50;;;18.60;53.50;;;;;;5048642;28;20223;-44
2023/03/20 04:24:39;;;;;;;1.60;1.50;;;18.60;53.40;;;;;;5038376;28;20225;-44
2023/03/20 04:27:05;;;;;;;1.97;1.87;;;18.70;53.40;;;;;;5044917;28;20197;-43
2023/03/20 04:29:31;;;;;;;2.10;1.90;;;18.60;53.10;;;;;;5047949;28;20220;-44
2023/03/20 04:31:56;;;;;;;1.80;1.70;;;18.60;53.20;;;;;;5045262;28;20733;-44
2023/03/20 04:34:23;;;;;;;2.00;1.90;;;18.70;53.30;;;;;;5048339;28;20192;-45
2023/03/20 04:36:49;;;;;;;1.90;1.80;;;18.70;53.20;;;;;;5044299;28;20200;-44
2023/03/20 04:39:15;;;;;;;2.17;2.07;;;18.70;52.90;;;;;;5053427;28;20451;-44
2023/03/20 04:41:40;;;;;;;2.30;2.10;;;18.60;53.10;;;;;;5048949;28;20191;-44
2023/03/20 04:44:06;;;;;;;2.03;1.93;;;18.50;53.00;;;;;;5038372;28;20487;-43
2023/03/20 04:46:32;;;;;;;1.60;1.50;;;18.40;53.20;;;;;;5041570;28;20640;-44
2023/03/20 04:48:57;;;;;;;2.30;2.10;;;18.20;53.80;;;;;;5040103;28;20185;-44
2023/03/20 04:51:23;;;;;;;2.47;1.80;;;17.80;54.40;;;;;;5045089;28;20193;-44
2023/03/20 04:53:49;;;;;;;2.10;1.90;;;17.60;54.90;;;;;;5040765;28;20212;-44
2023/03/20 04:56:14;;;;;;;2.17;2.07;;;17.50;55.10;;;;;;5042282;28;20259;-43
2023/03/20 04:58:40;;;;;;;1.80;1.70;;;17.40;55.40;;;;;;5044006;28;20196;-44
2023/03/20 05:01:06;;;;;;;1.83;1.70;;;17.30;55.60;;;;;;5043517;28;20200;-46
2023/03/20 05:03:32;;;;;;;2.50;1.77;;;17.20;55.60;;;;;;5038567;28;20227;-47
2023/03/20 05:05:58;;;;;;;1.43;1.30;;;17.10;55.70;;;;;;5040314;28;20201;-45
2023/03/20 05:08:23;;;;;;;1.60;1.50;;;17.00;56.00;;;;;;5042683;28;20949;-45
2023/03/20 05:10:49;;;;;;;2.10;1.50;;;16.90;56.40;;;;;;5038228;28;20443;-44
2023/03/20 05:13:15;;;;;;;2.23;1.70;;;16.80;56.70;;;;;;5038668;28;20664;-44
2023/03/20 05:15:40;;;;;;;2.70;1.97;;;16.80;56.90;;;;;;5052854;28;20197;-45
2023/03/20 05:18:07;;;;;;;2.70;1.97;;;16.70;56.80;;;;;;5041918;28;20243;-43
2023/03/20 05:20:32;;;;;;;1.60;1.50;;;16.70;56.90;;;;;;5044321;28;20203;-45
2023/03/20 05:22:58;;;;;;;2.23;2.03;;;16.60;57.20;;;;;;5044724;28;20490;-46
2023/03/20 05:25:23;;;;;;;1.53;1.43;;;16.60;57.60;;;;;;5043681;28;20436;-45
2023/03/20 05:27:49;;;;;;;3.03;1.53;;;16.50;57.70;;;;;;5046597;28;20250;-46
2023/03/20 05:30:15;;;;;;;1.37;1.13;;;16.50;57.90;;;;;;5045038;28;20196;-45
2023/03/20 05:32:42;;;;;;;3.03;1.33;;;16.50;57.80;;;;;;5045880;28;20205;-45
2023/03/20 05:35:08;;;;;;;1.60;1.40;;;16.40;58.00;;;;;;5043843;28;20474;-44
2023/03/20 05:37:33;;;;;;;1.63;1.53;;;16.40;57.60;;;;;;5049461;28;20451;-44
2023/03/20 05:39:59;;;;;;;1.50;1.40;;;16.40;57.70;;;;;;5038305;28;20275;-44
2023/03/20 05:42:25;;;;;;;3.07;2.87;;;16.30;57.80;;;;;;5040959;28;20213;-45
2023/03/20 05:44:51;;;;;;;1.60;1.50;;;16.40;58.00;;;;;;5041485;28;20307;-46
2023/03/20 05:47:17;;;;;;;1.80;1.60;;;16.30;58.20;;;;;;5042895;28;20518;-45
2023/03/20 05:49:43;;;;;;;1.77;1.50;;;16.30;58.30;;;;;;5041708;28;20552;-46
2023/03/20 05:52:08;;;;;;;1.50;1.40;;;16.30;58.60;;;;;;5036397;28;20477;-43
2023/03/20 05:54:34;;;;;;;1.50;1.40;;;16.30;58.60;;;;;;5037212;28;20239;-46
2023/03/20 05:57:00;;;;;;;1.50;1.40;;;16.20;58.30;;;;;;5041105;28;21147;-44
2023/03/20 05:59:25;;;;;;;3.60;1.77;;;16.30;58.30;;;;;;5039425;28;21934;-45
2023/03/20 06:01:51;;;;;;;1.50;1.40;;;16.20;58.30;;;;;;5042884;28;20204;-45
2023/03/20 06:04:16;;;;;;;1.50;1.40;;;16.20;58.30;;;;;;5038467;28;20203;-44
2023/03/20 06:06:42;;;;;;;2.17;2.00;;;16.20;58.30;;;;;;5039715;28;20188;-46
2023/03/20 06:09:07;;;;;;;3.13;1.93;;;16.20;58.30;;;;;;5040595;28;20610;-45
2023/03/20 06:11:33;;;;;;;2.27;2.07;;;16.20;57.70;;;;;;5041885;28;20192;-46
2023/03/20 06:13:59;;;;;;;2.40;2.20;;;16.20;57.60;;;;;;5043323;28;20224;-45
2023/03/20 06:16:25;;;;;;;2.80;2.60;;;16.20;58.20;;;;;;5041166;28;20713;-44
2023/03/20 06:18:51;;;;;;;2.53;2.10;;;16.20;57.60;;;;;;5044245;28;20201;-45
2023/03/20 06:21:17;;;;;;;2.10;1.97;;;16.30;58.00;;;;;;5040451;28;20429;-44
2023/03/20 06:23:42;;;;;;;2.67;2.47;;;16.50;58.00;;;;;;5041876;28;20250;-45
2023/03/20 06:26:08;;;;;;;4.50;3.00;;;16.50;57.40;;;;;;5042650;28;20192;-44
2023/03/20 06:28:34;;;;;;;3.33;2.50;;;16.70;57.20;;;;;;5037775;28;20211;-44
2023/03/20 06:30:59;;;;;;;4.60;2.37;;;16.80;56.90;;;;;;5041364;28;20205;-44
2023/03/20 06:33:25;;;;;;;2.40;2.20;;;16.80;56.70;;;;;;5037662;28;20621;-46
2023/03/20 06:35:51;;;;;;;1.83;1.73;;;16.90;56.60;;;;;;5042463;28;20192;-44
2023/03/20 06:38:17;;;;;;;2.70;2.50;;;17.00;56.30;;;;;;5040571;28;20240;-43
2023/03/20 06:40:44;;;;;;;2.20;2.00;;;17.10;56.30;;;;;;5038334;28;20474;-46
2023/03/20 06:43:11;;;;;;;2.37;2.17;;;17.00;55.80;;;;;;5041633;28;20220;-47
2023/03/20 06:45:37;;;;;;;2.70;2.40;;;17.10;55.80;;;;;;5040551;28;20454;-44
2023/03/20 06:48:06;;;;;;;2.23;1.80;;;17.00;55.90;;;;;;5040220;28;20444;-44
2023/03/20 06:50:31;;;;;;;1.87;1.70;;;17.10;55.90;;;;;;5043873;28;20470;-45
2023/03/20 06:52:57;;;;;;;2.00;1.80;;;16.90;55.60;;;;;;5048474;28;20451;-45
2023/03/20 06:55:22;;;;;;;3.10;2.30;;;16.90;56.10;;;;;;5047798;28;20238;-48
2023/03/20 06:57:48;;;;;;;2.10;2.00;;;16.90;56.20;;;;;;5040712;28;20669;-45
2023/03/20 07:00:14;;;;;;;2.33;2.00;;;16.90;56.00;;;;;;5043933;28;20204;-43
2023/03/20 07:02:40;;;;;;;2.33;2.10;;;16.90;55.80;;;;;;5047334;28;21893;-45
2023/03/20 07:05:06;;;;;;;5.70;2.00;;;16.90;55.80;;;;;;5049684;28;20547;-46
2023/03/20 07:07:33;;;;;;;2.10;2.00;;;17.00;55.80;;;;;;5049514;28;20184;-45
2023/03/20 07:09:58;;;;;;;4.60;2.20;;;17.10;55.70;;;;;;5050558;28;21041;-44
2023/03/20 07:12:27;;;;;;;5.20;2.83;;;17.20;55.40;;;;;;5042146;28;20443;-45
2023/03/20 07:14:53;;;;;;;4.77;2.60;;;17.20;55.30;;;;;;5048720;28;20199;-46
2023/03/20 07:17:18;;;;;;;4.20;2.87;;;17.30;55.40;;;;;;5049504;28;20451;-46
2023/03/20 07:19:44;;;;;;;4.77;2.40;;;17.40;55.40;;;;;;5038495;28;20235;-45
2023/03/20 07:22:20;;;;;;;6.30;2.87;;;17.50;55.60;;;;;;5039851;28;20246;-44
2023/03/20 07:24:46;;;;;;;3.63;1.93;;;17.60;55.60;;;;;;5044813;28;20197;-44
2023/03/20 07:27:11;;;;;;;1.73;1.60;;;17.60;55.20;;;;;;5047268;28;20784;-48
2023/03/20 07:29:37;;;;;;;1.93;1.70;;;17.60;54.70;;;;;;5043364;28;20591;-44
2023/03/20 07:32:02;;;;;;;1.97;1.70;;;17.60;54.60;;;;;;5036530;28;20197;-44
2023/03/20 07:34:28;;;;;;;1.63;1.53;;;17.60;54.00;;;;;;5036321;28;20805;-45
2023/03/20 07:36:54;;;;;;;1.67;1.57;;;17.50;54.00;;;;;;5047512;28;20204;-46
2023/03/20 07:39:20;;;;;;;1.40;1.30;;;17.50;54.30;;;;;;5049654;28;20277;-46
2023/03/20 07:41:46;;;;;;;2.53;1.47;;;17.50;54.20;;;;;;5050013;28;20192;-46
2023/03/20 07:44:13;;;;;;;2.60;1.80;;;17.60;54.00;;;;;;5050266;28;20494;-45
2023/03/20 07:46:39;;;;;;;3.13;1.73;;;17.60;53.70;;;;;;5048779;28;20652;-46
2023/03/20 07:49:05;;;;;;;1.50;1.37;;;17.60;53.80;;;;;;5050326;28;21010;-46
2023/03/20 07:51:31;;;;;;;1.40;1.30;;;17.60;54.00;;;;;;5048838;28;20435;-47
2023/03/20 07:53:57;;;;;;;1.73;1.63;;;17.60;53.80;;;;;;5053006;28;20443;-45
2023/03/20 07:56:23;;;;;;;1.60;1.50;;;17.60;53.50;;;;;;5054070;28;20473;-48
2023/03/20 07:58:49;;;;;;;1.77;1.30;;;17.60;53.60;;;;;;5053725;28;20193;-47
2023/03/20 08:01:14;;;;;;;1.80;1.50;;;17.50;53.90;;;;;;5052263;28;20242;-49
2023/03/20 08:03:40;;;;;;;1.40;1.30;;;17.40;53.80;;;;;;5056821;28;20220;-45
2023/03/20 08:06:08;;;;;;;1.73;1.63;;;17.40;53.50;;;;;;5054211;28;20620;-45
2023/03/20 08:08:34;;;;;;;1.50;1.40;;;17.10;54.30;;;;;;5054033;28;20678;-44
2023/03/20 08:11:00;;;;;;;1.17;1.00;;;17.00;54.20;;;;;;5052378;28;20443;-44
2023/03/20 08:13:25;;;;;;;1.53;1.30;;;17.10;54.10;;;;;;5046422;28;20223;-46
2023/03/20 08:15:51;;;;;;;2.00;1.53;;;17.00;54.10;;;;;;5049265;28;20438;-45
2023/03/20 08:18:18;;;;;;;1.40;1.30;;;16.90;54.50;;;;;;5033101;28;21433;-45
2023/03/20 08:20:44;;;;;;;1.37;1.27;;;17.00;54.90;;;;;;5032447;28;20200;-46
2023/03/20 08:23:10;;;;;;;1.50;1.40;;;16.80;54.80;;;;;;5050785;28;20985;-48
2023/03/20 08:25:36;;;;;;;7.00;1.40;;;16.70;55.30;;;;;;5052993;28;20196;-44
2023/03/20 08:28:02;;;;;;;2.57;1.57;;;16.80;55.40;;;;;;5051985;28;20492;-45
2023/03/20 08:30:29;;;;;;;2.27;1.60;;;16.60;54.80;;;;;;5043507;28;20288;-45
2023/03/20 08:32:54;;;;;;;1.67;1.57;;;16.60;55.70;;;;;;5045073;28;20835;-47
2023/03/20 08:35:20;;;;;;;1.40;1.30;;;16.70;55.50;;;;;;5038715;28;20446;-44
2023/03/20 08:37:46;;;;;;;1.60;1.50;;;16.90;55.40;;;;;;5053223;28;20280;-45
2023/03/20 08:40:11;;;;;;;1.30;1.20;;;17.10;54.80;;;;;;5049902;28;20191;-44
2023/03/20 08:42:37;;;;;;;2.90;1.53;;;17.20;54.10;;;;;;5053586;28;20212;-44
2023/03/20 08:45:03;;;;;;;1.77;1.40;;;17.10;54.00;;;;;;5053467;28;20220;-44
2023/03/20 08:47:29;;;;;;;1.70;1.60;;;17.00;54.00;;;;;;5053620;28;20220;-48
2023/03/20 08:49:55;;;;;;;1.70;1.50;;;17.00;53.90;;;;;;5052979;28;20439;-47
2023/03/20 08:52:20;;;;;;;2.40;1.40;;;16.80;54.30;;;;;;5053340;28;20427;-45
2023/03/20 08:54:46;;;;;;;1.77;1.67;;;16.80;54.80;;;;;;5056027;28;20232;-44
2023/03/20 08:57:11;;;;;;;1.70;1.60;;;16.70;54.60;;;;;;5053979;28;20192;-45
2023/03/20 08:59:37;;;;;;;2.50;1.33;;;16.80;55.10;;;;;;5053306;28;20678;-45
2023/03/20 09:02:03;;;;;;;2.67;1.60;;;17.10;54.70;;;;;;5054273;28;20695;-46
2023/03/20 09:04:28;;;;;;;1.87;1.77;;;17.20;54.10;;;;;;5052179;28;20189;-45
2023/03/20 09:06:55;;;;;;;2.30;1.83;;;17.00;53.80;;;;;;5051473;28;20205;-45
2023/03/20 09:09:25;;;;;;;1.93;1.63;;;17.20;54.30;;;;;;5049370;28;20312;-45
2023/03/20 09:11:52;;;;;;;4.33;1.60;;;17.20;53.60;;;;;;5052505;28;21340;-45
2023/03/20 09:14:18;;;;;;;1.77;1.67;;;17.20;53.30;;;;;;5051867;28;20537;-44
2023/03/20 09:16:43;;;;;;;4.17;1.70;;;17.00;52.80;;;;;;5053048;28;20503;-44
2023/03/20 09:19:09;;;;;;;6.50;2.00;;;17.20;53.30;;;;;;5052740;28;20816;-44
2023/03/20 09:21:35;;;;;;;1.63;1.53;;;17.40;53.10;;;;;;5052299;28;20204;-47
2023/03/20 09:24:01;;;;;;;2.07;1.60;;;17.50;52.70;;;;;;5054305;28;20551;-45
2023/03/20 09:26:26;;;;;;;2.07;1.93;;;17.60;52.70;;;;;;5052205;28;20220;-44
2023/03/20 09:28:52;;;;;;;1.93;1.63;;;17.80;52.20;;;;;;5051567;28;20201;-48
2023/03/20 09:31:17;;;;;;;2.50;1.40;;;17.90;51.80;;;;;;5052356;28;20193;-44
2023/03/20 09:33:43;;;;;;;4.30;1.53;;;18.00;52.60;;;;;;5051506;28;20708;-47
2023/03/20 09:36:10;;;;;;;1.67;1.40;;;18.10;52.60;;;;;;5052199;28;20192;-45
2023/03/20 09:38:36;;;;;;;1.40;1.30;;;18.20;52.10;;;;;;5052747;28;20199;-46
2023/03/20 09:41:04;;;;;;;1.50;1.40;;;17.90;50.90;;;;;;5052799;28;20431;-45
2023/03/20 09:43:44;;;;;;;2.03;1.60;;;18.10;51.20;;;;;;5051439;28;20794;-46
2023/03/20 09:46:48;;;;;;;4.57;1.97;;;18.30;51.20;;;;;;5052218;28;20469;-46
2023/03/20 09:49:39;;;;;;;1.80;1.70;;;18.40;50.50;;;;;;5052233;28;20870;-45
2023/03/20 09:52:21;;;;;;;1.50;1.40;;;18.40;50.40;;;;;;5035412;28;20455;-47
2023/03/20 09:54:51;;;;;;;2.00;1.80;;;18.50;50.40;;;;;;5049110;28;20482;-45
2023/03/20 09:57:25;;;;;;;1.63;1.53;;;18.60;50.10;;;;;;5050806;28;20454;-45
2023/03/20 09:59:57;;;;;;;1.60;1.50;;;18.80;50.00;;;;;;5054128;28;21256;-45
2023/03/20 10:02:44;;;;;;;2.03;1.80;;;18.80;50.00;;;;;;5050475;28;20475;-46
2023/03/20 10:05:25;;;;;;;2.10;1.80;;;18.90;49.90;;;;;;5051917;28;20454;-45
2023/03/20 10:08:15;;;;;;;1.87;1.53;;;19.00;50.00;;;;;;5051777;28;21079;-46
2023/03/20 10:11:05;;;;;;;1.93;1.43;;;19.00;49.90;;;;;;5050128;28;20501;-44
2023/03/20 10:13:37;;;;;;;1.50;1.40;;;18.80;49.50;;;;;;5043619;28;20438;-45
2023/03/20 10:16:18;;;;;;;1.73;1.50;;;18.80;49.60;;;;;;5050545;28;20455;-45
2023/03/20 10:18:52;;;;;;;1.60;1.50;;;18.60;49.30;;;;;;5050264;28;20468;-45
2023/03/20 10:21:38;;;;;;;1.30;1.20;;;18.60;48.80;;;;;;5052367;28;20419;-44
2023/03/20 10:24:11;;;;;;;2.20;1.50;;;18.60;48.80;;;;;;5051288;28;20993;-45
2023/03/20 10:26:38;;;;;;;2.00;1.53;;;18.50;48.90;;;;;;5051342;28;20439;-46
2023/03/20 10:29:18;;;;;;;1.70;1.40;;;18.60;48.90;;;;;;5045514;28;20497;-45
2023/03/20 10:32:10;;;;;;;1.60;1.50;;;18.70;48.90;;;;;;5048987;28;20485;-44
2023/03/20 10:34:52;;;;;;;2.20;1.20;;;18.50;49.40;;;;;;5050287;28;20457;-46
2023/03/20 10:37:27;;;;;;;1.80;1.70;;;18.50;49.50;;;;;;5044201;28;20443;-47
2023/03/20 10:40:06;;;;;;;1.57;1.47;;;18.30;50.50;;;;;;5042412;28;20457;-47
2023/03/20 10:42:40;;;;;;;1.83;1.73;;;18.40;50.70;;;;;;5045398;28;22490;-45
2023/03/20 10:45:17;;;;;;;1.60;1.50;;;18.50;51.10;;;;;;5045899;28;21086;-44
2023/03/20 10:47:50;;;;;;;1.90;1.80;;;18.60;51.00;;;;;;5046651;28;20946;-44
2023/03/20 10:50:27;;;;;;;1.53;1.43;;;18.70;50.70;;;;;;5049559;28;20435;-47
2023/03/20 10:52:55;;;;;;;1.60;1.50;;;18.80;50.50;;;;;;5053332;28;20449;-45
2023/03/20 10:55:27;;;;;;;2.37;2.10;;;18.80;50.20;;;;;;5047366;28;20576;-44
2023/03/20 10:58:18;;;;;;;2.40;2.00;;;18.90;50.10;;;;;;5041005;28;20466;-45
2023/03/20 11:00:44;;;;;;;2.30;2.10;;;18.90;50.10;;;;;;5045506;28;20468;-45
2023/03/20 11:03:24;;;;;;;2.53;2.33;;;18.90;50.30;;;;;;5042313;28;20520;-45
2023/03/20 11:05:58;;;;;;;5.93;1.90;;;18.90;50.50;;;;;;5047967;28;20441;-49
2023/03/20 11:08:36;;;;;;;2.33;2.17;;;18.80;50.70;;;;;;5046515;28;20431;-46
2023/03/20 11:11:03;;;;;;;2.67;2.40;;;18.80;50.50;;;;;;5049807;28;20442;-45
2023/03/20 11:13:32;;;;;;;2.50;2.30;;;18.80;50.50;;;;;;5040612;28;20452;-47
2023/03/20 11:16:16;;;;;;;2.37;2.17;;;18.80;50.40;;;;;;5047231;28;20539;-48
2023/03/20 11:18:42;;;;;;;2.43;1.90;;;18.80;50.50;;;;;;5045996;28;20457;-44
2023/03/20 11:21:24;;;;;;;2.83;2.30;;;18.80;50.90;;;;;;5039015;28;20431;-44
2023/03/20 11:23:51;;;;;;;2.53;2.33;;;18.70;50.00;;;;;;5041752;28;20222;-45
2023/03/20 11:26:33;;;;;;;6.80;3.00;;;18.50;49.70;;;;;;5046961;28;21112;-44
2023/03/20 11:28:59;;;;;;;3.40;3.10;;;18.40;50.70;;;;;;5048083;28;20474;-44
2023/03/20 11:31:30;;;;;;;3.50;3.20;;;18.40;50.70;;;;;;5043132;28;21159;-45
2023/03/20 11:34:10;;;;;;;5.87;3.63;;;18.30;51.20;;;;;;5046661;28;20955;-47
2023/03/20 11:36:39;;;;;;;4.60;4.20;;;18.30;51.20;;;;;;5044647;28;20442;-44
2023/03/20 11:39:20;;;;;;;3.80;3.50;;;18.20;50.90;;;;;;5050643;28;20427;-46
2023/03/20 11:41:54;;;;;;;4.83;3.63;;;18.20;51.60;;;;;;5051094;28;20447;-46
2023/03/20 11:44:27;;;;;;;3.90;3.53;;;18.20;51.10;;;;;;5060082;28;21004;-45
2023/03/20 11:47:00;;;;;;;4.23;3.83;;;18.10;51.00;;;;;;5050375;28;20477;-43
2023/03/20 11:49:26;;;;;;;6.07;4.00;;;18.00;51.60;;;;;;5050249;28;20501;-44
2023/03/20 11:51:54;;;;;;;4.20;3.57;;;17.90;52.00;;;;;;5048594;28;20443;-44
2023/03/20 11:54:23;;;;;;;4.57;3.90;;;17.90;52.00;;;;;;5030091;28;20451;-44
2023/03/20 11:56:57;;;;;;;4.50;4.10;;;18.00;51.70;;;;;;5049392;28;20455;-45
2023/03/20 11:59:32;;;;;;;4.90;3.63;;;18.20;51.50;;;;;;5053891;28;20492;-44
2023/03/20 12:01:59;;;;;;;5.07;4.67;;;18.30;51.60;;;;;;5043416;28;21008;-44
2023/03/20 12:04:28;;;;;;;5.10;4.60;;;18.30;51.30;;;;;;5048652;28;20935;-45
2023/03/20 12:07:09;;;;;;;4.23;3.83;;;18.50;51.60;;;;;;5050496;28;20449;-46
2023/03/20 12:09:49;;;;;;;4.40;4.00;;;18.50;51.30;;;;;;5049128;28;20949;-46
2023/03/20 12:12:42;;;;;;;5.67;4.67;;;18.60;51.30;;;;;;5035275;28;20989;-44
2023/03/20 12:15:36;;;;;;;5.40;4.60;;;18.60;51.40;;;;;;5034981;28;20436;-44
2023/03/20 12:18:13;;;;;;;5.60;4.73;;;18.60;51.80;;;;;;5049059;28;20450;-45
2023/03/20 12:21:02;;;;;;;5.70;5.10;;;18.40;51.10;;;;;;5044458;28;20454;-44
2023/03/20 12:23:42;;;;;;;6.00;5.13;;;18.60;51.20;;;;;;5051617;28;20843;-48
2023/03/20 12:26:24;;;;;;;5.80;5.03;;;18.60;49.90;;;;;;5044586;28;20451;-45
2023/03/20 12:28:53;;;;;;;4.37;3.97;;;18.40;49.50;;;;;;5046652;28;20989;-45
2023/03/20 12:31:50;;;;;;;4.90;4.20;;;18.40;49.70;;;;;;5038745;28;20805;-46
2023/03/20 12:34:36;;;;;;;6.63;4.60;;;18.60;49.90;;;;;;5048077;28;20458;-45
2023/03/20 12:37:01;;;;;;;4.67;4.13;;;18.80;49.40;;;;;;5031805;28;21009;-45
2023/03/20 12:39:40;;;;;;;5.03;4.53;;;19.00;49.30;;;;;;5047165;28;20443;-45
2023/03/20 12:42:18;;;;;;;4.33;3.60;;;19.10;48.40;;;;;;5037808;28;20216;-45
2023/03/20 12:44:56;;;;;;;4.00;3.07;;;19.10;48.20;;;;;;5040268;28;20484;-46
2023/03/20 12:47:46;;;;;;;3.80;3.50;;;19.30;48.20;;;;;;5044319;28;20489;-45
2023/03/20 12:50:20;;;;;;;4.20;3.90;;;19.10;47.80;;;;;;5041755;28;20438;-45
2023/03/20 12:52:49;;;;;;;3.70;3.30;;;19.20;48.30;;;;;;5053451;28;20426;-45
2023/03/20 12:55:24;;;;;;;4.43;4.03;;;19.50;47.60;;;;;;5046892;28;20478;-44
2023/03/20 12:58:11;;;;;;;6.70;4.00;;;19.60;46.80;;;;;;5050556;28;20448;-46
2023/03/20 13:00:44;;;;;;;5.70;3.47;;;19.60;46.50;;;;;;5043810;28;20461;-45
2023/03/20 13:03:44;;;;;;;6.00;3.70;;;19.80;47.70;;;;;;5049991;28;20509;-48
2023/03/20 13:06:21;;;;;;;6.27;4.60;;;19.80;46.40;;;;;;5040560;28;20443;-45
2023/03/20 13:08:55;;;;;;;3.70;3.40;;;19.90;46.20;;;;;;5048965;28;21166;-45